createdAt,value
2018-02-22T18:00:55.994Z,27.50
2018-02-22T18:03:25.430Z,30.40
2018-02-22T18:05:53.630Z,30.30
2018-02-22T18:08:22.216Z,30.90
2018-02-22T18:10:51.268Z,35.40
2018-02-22T18:13:19.437Z,35.30
2018-02-22T18:15:47.667Z,36.40
2018-02-22T18:18:16.610Z,40.30
2018-02-22T18:20:44.836Z,40.30
2018-02-22T18:23:12.978Z,42.40
2018-02-22T18:25:41.920Z,45.60
2018-02-22T18:28:10.156Z,45.50
2018-02-22T18:30:40.980Z,47.70
2018-02-22T18:33:09.380Z,47.70
2018-02-22T18:35:37.538Z,48.50
2018-02-22T18:38:05.703Z,48.70
2018-02-22T18:40:39.623Z,49.20
2018-02-22T18:43:14.377Z,49.70
2018-02-22T18:45:42.737Z,49.70
2018-02-22T18:48:10.967Z,49.90
2018-02-22T18:50:39.161Z,50.00
2018-02-22T18:53:07.501Z,50.50
2018-02-22T18:55:35.667Z,50.70
2018-02-22T18:58:03.826Z,50.50
2018-02-22T19:00:31.968Z,50.80
2018-02-22T19:03:01.059Z,51.30
2018-02-22T19:05:29.398Z,51.30
2018-02-22T19:07:57.573Z,51.70
2018-02-22T19:10:25.730Z,51.70
2018-02-22T19:12:53.899Z,52.00
2018-02-22T19:15:22.381Z,51.50
2018-02-22T19:17:50.547Z,51.50
2018-02-22T19:20:18.833Z,51.70
2018-02-22T19:22:46.995Z,51.80
2018-02-22T19:25:15.197Z,52.20
2018-02-22T19:27:43.929Z,52.20
2018-02-22T19:30:12.869Z,52.60
2018-02-22T19:32:41.114Z,52.40
2018-02-22T19:35:10.187Z,52.60
2018-02-22T19:37:38.360Z,52.60
2018-02-22T19:40:06.676Z,52.40
2018-02-22T19:42:34.859Z,53.20
2018-02-22T19:45:03.281Z,52.70
2018-02-22T19:47:31.455Z,53.10
2018-02-22T19:49:59.642Z,53.10
2018-02-22T19:52:28.585Z,53.00
2018-02-22T19:54:56.822Z,52.90
2018-02-22T19:57:25.871Z,53.50
2018-02-22T19:59:54.108Z,53.40
2018-02-22T20:04:56.841Z,53.70
2018-02-22T20:07:25.009Z,53.70
2018-02-22T20:09:53.181Z,53.80
2018-02-22T20:12:21.436Z,54.00
2018-02-22T20:14:51.197Z,54.30
2018-02-22T20:17:19.503Z,54.50
2018-02-22T20:19:48.343Z,54.80
2018-02-22T20:22:17.468Z,55.00
2018-02-22T20:24:46.225Z,55.00
2018-02-22T20:27:14.406Z,55.20
2018-02-22T20:29:42.582Z,55.60
2018-02-22T20:32:10.757Z,55.60
2018-02-22T20:34:38.943Z,55.60
2018-02-22T20:37:07.118Z,55.40
2018-02-22T20:39:35.390Z,55.30
2018-02-22T20:42:03.643Z,55.70
2018-02-22T20:44:32.576Z,55.50
2018-02-22T20:47:01.549Z,55.50
2018-02-22T20:49:30.505Z,55.50
2018-02-22T20:51:58.715Z,55.50
2018-02-22T20:54:28.387Z,55.60
2018-02-22T20:56:56.555Z,55.60
2018-02-22T20:59:25.507Z,55.70
2018-02-22T21:01:54.396Z,55.90
2018-02-22T21:04:22.628Z,55.90
2018-02-22T21:06:51.005Z,55.80
2018-02-22T21:09:19.296Z,56.50
2018-02-22T21:11:47.581Z,56.00
2018-02-22T21:14:15.744Z,56.10
2018-02-22T21:16:43.932Z,56.30
2018-02-22T21:19:15.105Z,56.30
2018-02-22T21:21:43.256Z,56.30
2018-02-22T21:24:11.563Z,56.40
2018-02-22T21:26:39.765Z,56.20
2018-02-22T21:29:08.019Z,56.20
2018-02-22T21:31:36.355Z,56.50
2018-02-22T21:34:04.582Z,56.70
2018-02-22T21:36:33.034Z,56.70
2018-02-22T21:39:01.981Z,56.80
2018-02-22T21:41:30.143Z,56.80
2018-02-22T21:43:59.134Z,57.20
2018-02-22T21:46:27.378Z,57.20
2018-02-22T21:48:55.543Z,57.50
2018-02-22T21:51:24.464Z,57.70
2018-02-22T21:53:52.654Z,57.70
2018-02-22T21:56:20.827Z,57.80
2018-02-22T21:58:54.248Z,57.90
2018-02-22T22:01:23.537Z,58.00
2018-02-22T22:03:51.702Z,58.00
2018-02-22T22:06:19.894Z,57.80
2018-02-22T22:08:48.072Z,57.70
2018-02-22T22:11:16.209Z,57.70
2018-02-22T22:13:44.491Z,58.10
2018-02-22T22:16:12.690Z,58.30
2018-02-22T22:18:40.852Z,58.30
2018-02-22T22:21:09.131Z,58.50
2018-02-22T22:23:37.405Z,58.40
2018-02-22T22:26:05.581Z,58.50
2018-02-22T22:28:33.786Z,58.40
2018-02-22T22:31:02.709Z,58.50
2018-02-22T22:33:30.941Z,58.40
2018-02-22T22:35:59.238Z,58.50
2018-02-22T22:38:27.383Z,58.70
2018-02-22T22:40:55.587Z,58.80
2018-02-22T22:43:23.903Z,58.90
2018-02-22T22:45:52.072Z,58.90
2018-02-22T22:48:20.215Z,59.10
2018-02-22T22:50:48.620Z,59.10
2018-02-22T22:53:17.121Z,59.30
2018-02-22T22:55:45.286Z,59.30
2018-02-22T22:58:13.431Z,59.40
2018-02-22T23:00:42.480Z,59.50
2018-02-22T23:03:10.639Z,59.50
2018-02-22T23:05:39.032Z,59.70
2018-02-22T23:08:07.431Z,59.60
2018-02-22T23:10:35.593Z,59.40
2018-02-22T23:13:03.830Z,60.00
2018-02-22T23:15:32.047Z,59.60
2018-02-22T23:18:00.268Z,59.70
2018-02-22T23:20:28.626Z,59.60
2018-02-22T23:22:57.567Z,59.40
2018-02-22T23:25:25.719Z,59.40
2018-02-22T23:27:53.966Z,59.70
2018-02-22T23:30:23.077Z,60.50
2018-02-22T23:32:51.362Z,59.80
2018-02-22T23:35:19.540Z,59.90
2018-02-22T23:37:47.887Z,60.00
2018-02-22T23:40:31.858Z,60.20
2018-02-22T23:43:00.881Z,60.20
2018-02-22T23:45:29.078Z,60.60
2018-02-22T23:47:57.244Z,60.30
2018-02-22T23:50:25.449Z,60.60
2018-02-22T23:52:54.434Z,60.10
2018-02-22T23:55:22.721Z,60.00
2018-02-22T23:57:51.713Z,59.90
